Time;durP1;ratioP1;P1;durP2;ratioP2;P2;SDS_P1;SDS_P2;PMS_P1;PMS_P2;Temp;Humidity;BMP_temperature;BMP_pressure;BME280_temperature;BME280_humidity;BME280_pressure;Samples;Min_cycle;Max_cycle;Signal;HPM_P1;HPM_P2
2022/06/02 00:01:43;;;;;;;3.58;2.60;;;;;;;;;;5034362;28;20136;-38
2022/06/02 00:04:15;;;;;;;6.40;3.22;;;;;;;;;;5034160;28;20796;-38
2022/06/02 00:06:59;;;;;;;9.88;3.75;;;;;;;;;;5034120;28;20109;-38
2022/06/02 00:09:25;;;;;;;3.85;2.95;;;;;;;;;;5034253;28;20041;-38
2022/06/02 00:11:50;;;;;;;8.45;3.53;;;;;;;;;;5016372;28;20025;-38
2022/06/02 00:14:23;;;;;;;9.57;2.75;;;;;;;;;;5016359;28;20030;-38
2022/06/02 00:16:52;;;;;;;4.18;2.72;;;;;;;;;;5034037;28;20037;-38
2022/06/02 00:19:26;;;;;;;3.97;2.92;;;;;;;;;;5016243;28;20033;-38
2022/06/02 00:21:57;;;;;;;5.00;3.28;;;;;;;;;;5033971;28;20033;-38
2022/06/02 00:24:39;;;;;;;4.00;3.00;;;;;;;;;;5033941;28;20043;-37
2022/06/02 00:27:07;;;;;;;4.97;3.03;;;;;;;;;;5033792;28;20036;-38
2022/06/02 00:29:59;;;;;;;5.25;2.95;;;;;;;;;;5033744;28;20072;-38
2022/06/02 00:32:30;;;;;;;7.78;3.05;;;;;;;;;;5030677;28;20495;-42
2022/06/02 00:35:25;;;;;;;6.72;3.58;;;;;;;;;;5033996;28;20116;-38
2022/06/02 00:38:09;;;;;;;3.53;2.58;;;;;;;;;;5020718;28;20053;-38
2022/06/02 00:40:35;;;;;;;8.55;3.33;;;;;;;;;;5033716;28;20049;-38
2022/06/02 00:43:13;;;;;;;4.93;3.13;;;;;;;;;;5015879;28;20439;-38
2022/06/02 00:45:42;;;;;;;3.45;2.90;;;;;;;;;;5033460;28;20247;-38
2022/06/02 00:48:11;;;;;;;4.35;3.00;;;;;;;;;;5033416;28;20083;-38
2022/06/02 00:50:48;;;;;;;8.93;3.15;;;;;;;;;;5033359;28;20028;-38
2022/06/02 00:53:17;;;;;;;7.80;3.00;;;;;;;;;;5033746;28;20072;-38
2022/06/02 00:59:11;;;;;;;5.20;3.00;;;;;;;;;;5033416;28;20026;-38
2022/06/02 01:01:36;;;;;;;4.80;2.83;;;;;;;;;;4972004;28;20438;-38
2022/06/02 01:04:08;;;;;;;4.07;2.83;;;;;;;;;;5020277;28;20076;-38
2022/06/02 01:06:39;;;;;;;6.30;3.45;;;;;;;;;;5033216;28;20037;-38
2022/06/02 01:09:05;;;;;;;10.30;3.33;;;;;;;;;;5032892;28;20037;-38
2022/06/02 01:11:39;;;;;;;8.45;3.72;;;;;;;;;;5033418;28;20036;-38
2022/06/02 01:14:12;;;;;;;6.30;2.92;;;;;;;;;;5033363;28;20029;-37
2022/06/02 01:16:40;;;;;;;5.65;3.25;;;;;;;;;;5033151;28;20384;-38
2022/06/02 01:19:29;;;;;;;8.23;3.30;;;;;;;;;;5032944;28;20550;-38
2022/06/02 01:22:13;;;;;;;4.72;2.85;;;;;;;;;;5004616;28;20083;-38
2022/06/02 01:24:45;;;;;;;6.32;2.63;;;;;;;;;;5032797;28;20029;-38
2022/06/02 01:27:10;;;;;;;5.45;3.53;;;;;;;;;;5032732;28;20045;-38
2022/06/02 01:29:47;;;;;;;4.82;3.70;;;;;;;;;;5032883;28;20036;-38
2022/06/02 01:32:15;;;;;;;4.88;3.40;;;;;;;;;;5032675;28;20034;-38
2022/06/02 01:35:00;;;;;;;5.82;3.30;;;;;;;;;;5032518;28;20109;-38
2022/06/02 01:37:26;;;;;;;4.78;3.08;;;;;;;;;;5021760;28;20044;-42
2022/06/02 01:39:51;;;;;;;4.65;2.88;;;;;;;;;;5031788;28;20096;-38
2022/06/02 01:42:19;;;;;;;11.18;3.78;;;;;;;;;;5032606;28;20052;-37
2022/06/02 01:44:56;;;;;;;9.02;2.83;;;;;;;;;;5032522;28;20467;-39
2022/06/02 01:47:31;;;;;;;6.72;3.72;;;;;;;;;;5032353;28;20034;-38
2022/06/02 01:49:59;;;;;;;3.28;2.83;;;;;;;;;;5032105;28;20457;-38
2022/06/02 01:52:43;;;;;;;5.57;2.95;;;;;;;;;;5032493;28;20104;-38
2022/06/02 01:55:11;;;;;;;3.65;2.92;;;;;;;;;;5032289;28;20033;-38
2022/06/02 01:57:52;;;;;;;3.65;2.92;;;;;;;;;;5032420;28;20033;-39
2022/06/02 02:00:22;;;;;;;5.70;3.08;;;;;;;;;;5032124;28;20033;-38
2022/06/02 02:02:52;;;;;;;6.13;3.20;;;;;;;;;;5031910;28;20052;-38
2022/06/02 02:05:27;;;;;;;6.10;3.50;;;;;;;;;;5032081;28;20025;-38
2022/06/02 02:07:54;;;;;;;6.13;3.63;;;;;;;;;;5032060;28;20037;-39
2022/06/02 02:10:39;;;;;;;4.45;3.05;;;;;;;;;;5031995;28;20100;-38
2022/06/02 02:13:17;;;;;;;5.63;3.10;;;;;;;;;;5031961;28;20030;-38
2022/06/02 02:15:45;;;;;;;6.53;3.55;;;;;;;;;;5031851;28;20108;-38
2022/06/02 02:18:19;;;;;;;6.25;2.78;;;;;;;;;;5031843;28;20368;-38
2022/06/02 02:20:47;;;;;;;5.80;3.10;;;;;;;;;;5032039;28;20108;-38
2022/06/02 02:23:21;;;;;;;5.55;3.28;;;;;;;;;;5031843;28;20483;-38
2022/06/02 02:25:50;;;;;;;8.10;3.35;;;;;;;;;;5031593;28;20033;-38
2022/06/02 02:28:34;;;;;;;5.45;2.85;;;;;;;;;;5031504;28;20041;-38
2022/06/02 02:31:02;;;;;;;4.03;3.08;;;;;;;;;;5031660;28;20484;-38
2022/06/02 02:33:46;;;;;;;5.25;3.00;;;;;;;;;;5031831;28;20510;-38
2022/06/02 02:36:15;;;;;;;5.43;3.38;;;;;;;;;;5031894;28;20064;-38
2022/06/02 02:39:06;;;;;;;7.25;4.47;;;;;;;;;;5031436;28;20392;-38
2022/06/02 02:41:40;;;;;;;5.28;3.70;;;;;;;;;;5008370;28;20124;-38
2022/06/02 02:44:11;;;;;;;6.60;4.00;;;;;;;;;;5031487;28;20040;-38
2022/06/02 02:46:40;;;;;;;4.45;3.25;;;;;;;;;;5031455;28;20796;-38
2022/06/02 02:49:13;;;;;;;5.10;3.30;;;;;;;;;;5031539;28;20046;-38
2022/06/02 02:51:39;;;;;;;10.07;3.78;;;;;;;;;;5031338;28;20039;-38
2022/06/02 02:54:15;;;;;;;8.35;3.90;;;;;;;;;;5031569;28;20021;-37
2022/06/02 02:56:46;;;;;;;5.97;3.25;;;;;;;;;;5031460;28;20040;-38
2022/06/02 02:59:46;;;;;;;7.93;3.95;;;;;;;;;;5031745;28;20357;-38
2022/06/02 03:02:17;;;;;;;4.88;3.63;;;;;;;;;;4969894;28;20037;-38
2022/06/02 03:05:01;;;;;;;7.70;3.25;;;;;;;;;;5020641;28;20068;-38
2022/06/02 03:07:29;;;;;;;3.65;3.35;;;;;;;;;;5031431;28;20056;-38
2022/06/02 03:10:00;;;;;;;4.47;2.70;;;;;;;;;;5031332;28;20017;-38
2022/06/02 03:12:26;;;;;;;13.30;3.70;;;;;;;;;;5031153;28;20529;-37
2022/06/02 03:15:10;;;;;;;8.38;4.28;;;;;;;;;;5031366;28;20026;-37
2022/06/02 03:17:51;;;;;;;3.67;3.08;;;;;;;;;;5031377;28;20049;-38
2022/06/02 03:20:19;;;;;;;6.32;3.17;;;;;;;;;;5031298;28;20040;-38
2022/06/02 03:22:48;;;;;;;5.53;2.97;;;;;;;;;;5031346;28;20013;-38
2022/06/02 03:25:17;;;;;;;4.43;3.15;;;;;;;;;;5030957;28;20471;-38
2022/06/02 03:28:00;;;;;;;3.90;2.97;;;;;;;;;;5031382;28;20582;-38
2022/06/02 03:30:30;;;;;;;4.80;3.05;;;;;;;;;;5030985;28;20121;-38
2022/06/02 03:33:14;;;;;;;4.22;2.95;;;;;;;;;;5030905;28;20090;-38
2022/06/02 03:35:51;;;;;;;6.07;3.40;;;;;;;;;;5031146;28;20029;-38
2022/06/02 03:38:35;;;;;;;4.03;3.38;;;;;;;;;;5031147;28;20069;-38
2022/06/02 03:41:18;;;;;;;7.05;3.20;;;;;;;;;;5030998;28;20069;-38
2022/06/02 03:43:53;;;;;;;5.85;3.53;;;;;;;;;;5030850;28;20060;-38
2022/06/02 03:46:30;;;;;;;6.30;3.53;;;;;;;;;;5030817;28;20029;-38
2022/06/02 03:49:15;;;;;;;4.25;3.20;;;;;;;;;;5030674;28;20091;-38
2022/06/02 03:51:58;;;;;;;7.22;4.00;;;;;;;;;;5030801;28;20116;-38
2022/06/02 03:54:33;;;;;;;5.18;4.20;;;;;;;;;;5030747;28;20033;-37
2022/06/02 03:57:04;;;;;;;9.35;3.75;;;;;;;;;;5030944;28;20425;-38
2022/06/02 03:59:43;;;;;;;5.63;3.53;;;;;;;;;;5031014;28;20426;-38
2022/06/02 04:02:10;;;;;;;6.80;3.88;;;;;;;;;;5032369;28;20373;-38
2022/06/02 04:04:47;;;;;;;6.47;4.70;;;;;;;;;;5034249;28;20033;-38
2022/06/02 04:07:12;;;;;;;8.90;4.65;;;;;;;;;;5034156;28;20034;-38
2022/06/02 04:09:44;;;;;;;6.53;4.53;;;;;;;;;;5034462;28;20021;-38
2022/06/02 04:15:29;;;;;;;5.28;4.30;;;;;;;;;;5034462;28;20079;-38
2022/06/02 04:18:06;;;;;;;8.55;3.80;;;;;;;;;;5010948;28;20038;-38
2022/06/02 04:20:46;;;;;;;4.47;3.80;;;;;;;;;;5033969;28;20053;-38
2022/06/02 04:23:29;;;;;;;6.53;3.70;;;;;;;;;;5034251;28;20067;-38
2022/06/02 04:26:01;;;;;;;6.30;3.20;;;;;;;;;;5033942;28;20127;-38
2022/06/02 04:28:41;;;;;;;5.07;3.63;;;;;;;;;;5033688;28;20071;-38
2022/06/02 04:31:25;;;;;;;5.95;3.63;;;;;;;;;;5034099;28;20037;-38
2022/06/02 04:33:51;;;;;;;4.50;3.80;;;;;;;;;;5033817;28;20144;-38
2022/06/02 04:36:16;;;;;;;11.13;4.00;;;;;;;;;;5033630;28;20108;-39
2022/06/02 04:38:57;;;;;;;4.32;3.33;;;;;;;;;;5033858;28;20034;-38
2022/06/02 04:41:42;;;;;;;3.65;2.97;;;;;;;;;;5033704;28;20037;-38
2022/06/02 04:44:08;;;;;;;7.72;3.90;;;;;;;;;;5032761;28;20038;-38
2022/06/02 04:46:34;;;;;;;13.38;4.00;;;;;;;;;;5033629;28;20071;-38
2022/06/02 04:49:08;;;;;;;6.13;4.18;;;;;;;;;;5033369;28;20068;-38
2022/06/02 04:51:41;;;;;;;4.47;3.50;;;;;;;;;;5033700;28;20030;-38
2022/06/02 04:54:26;;;;;;;8.77;3.35;;;;;;;;;;5033485;28;20034;-38
2022/06/02 04:56:56;;;;;;;4.90;4.13;;;;;;;;;;5033301;28;20041;-38
2022/06/02 04:59:27;;;;;;;6.22;3.83;;;;;;;;;;5033615;28;20038;-38
2022/06/02 05:02:14;;;;;;;3.92;3.20;;;;;;;;;;5033501;28;20120;-38
2022/06/02 05:04:39;;;;;;;5.88;3.67;;;;;;;;;;5033214;28;20045;-38
2022/06/02 05:07:04;;;;;;;6.13;3.75;;;;;;;;;;5033252;28;20034;-38
2022/06/02 05:09:30;;;;;;;6.65;3.50;;;;;;;;;;5033069;28;20049;-38
2022/06/02 05:12:12;;;;;;;12.93;3.67;;;;;;;;;;5033042;28;20021;-38
2022/06/02 05:14:47;;;;;;;3.38;3.08;;;;;;;;;;5032107;28;20036;-38
2022/06/02 05:17:31;;;;;;;5.68;2.88;;;;;;;;;;5032983;28;20063;-38
2022/06/02 05:20:12;;;;;;;4.60;2.85;;;;;;;;;;5032815;28;20589;-38
2022/06/02 05:22:44;;;;;;;5.18;3.30;;;;;;;;;;5032929;28;20388;-38
2022/06/02 05:25:20;;;;;;;5.05;2.97;;;;;;;;;;5032761;28;20034;-38
2022/06/02 05:28:00;;;;;;;4.82;3.10;;;;;;;;;;5032713;28;20395;-38
2022/06/02 05:30:26;;;;;;;4.53;3.90;;;;;;;;;;5032715;28;20030;-38
2022/06/02 05:33:01;;;;;;;6.65;3.90;;;;;;;;;;5031969;28;20395;-38
2022/06/02 05:35:33;;;;;;;7.35;3.30;;;;;;;;;;5032732;28;20033;-38
2022/06/02 05:38:17;;;;;;;9.98;4.00;;;;;;;;;;5032608;28;20037;-38
2022/06/02 05:40:45;;;;;;;6.55;3.65;;;;;;;;;;5032352;28;20037;-38
2022/06/02 05:43:25;;;;;;;5.78;4.70;;;;;;;;;;5032793;28;20068;-38
2022/06/02 05:45:51;;;;;;;8.35;4.10;;;;;;;;;;5032658;28;20553;-38
2022/06/02 05:48:23;;;;;;;7.40;4.28;;;;;;;;;;5032265;28;20037;-38
2022/06/02 05:50:48;;;;;;;7.03;3.53;;;;;;;;;;5032271;28;20489;-38
2022/06/02 05:53:25;;;;;;;5.60;3.60;;;;;;;;;;5032367;28;20038;-38
2022/06/02 05:56:03;;;;;;;15.15;4.80;;;;;;;;;;5014465;28;20044;-38
2022/06/02 05:58:52;;;;;;;6.78;3.65;;;;;;;;;;5032146;28;20068;-37
2022/06/02 06:01:22;;;;;;;5.88;3.72;;;;;;;;;;5032093;28;20036;-38
2022/06/02 06:04:00;;;;;;;6.32;4.00;;;;;;;;;;5031843;28;20045;-38
2022/06/02 06:06:32;;;;;;;4.30;3.15;;;;;;;;;;5032079;28;20087;-38
2022/06/02 06:09:12;;;;;;;4.85;3.10;;;;;;;;;;5031762;28;20491;-38
2022/06/02 06:11:40;;;;;;;5.45;3.33;;;;;;;;;;5032102;28;20029;-38
2022/06/02 06:14:08;;;;;;;6.72;3.55;;;;;;;;;;5031971;28;20044;-38
2022/06/02 06:16:39;;;;;;;7.78;3.80;;;;;;;;;;5014122;28;20067;-40
2022/06/02 06:19:13;;;;;;;5.38;3.90;;;;;;;;;;5031869;28;20029;-38
2022/06/02 06:21:45;;;;;;;5.65;3.50;;;;;;;;;;5032158;28;20041;-38
2022/06/02 06:24:36;;;;;;;4.35;3.70;;;;;;;;;;5031545;28;20104;-38
2022/06/02 06:27:14;;;;;;;4.45;3.78;;;;;;;;;;5031754;28;20380;-38
2022/06/02 06:29:54;;;;;;;9.63;3.33;;;;;;;;;;5031442;28;20041;-38
2022/06/02 06:32:35;;;;;;;8.73;3.33;;;;;;;;;;5013915;28;20060;-38
2022/06/02 06:35:04;;;;;;;6.13;3.65;;;;;;;;;;5031452;28;20033;-37
2022/06/02 06:37:39;;;;;;;5.55;3.58;;;;;;;;;;5031837;28;20025;-37
2022/06/02 06:40:13;;;;;;;3.97;3.60;;;;;;;;;;5031624;28;20101;-38
2022/06/02 06:42:57;;;;;;;4.18;3.47;;;;;;;;;;5031502;28;20022;-38
2022/06/02 06:45:25;;;;;;;9.75;4.22;;;;;;;;;;5031408;28;20143;-38
2022/06/02 06:48:00;;;;;;;3.60;2.97;;;;;;;;;;5031170;28;20120;-38
2022/06/02 06:50:30;;;;;;;6.30;4.18;;;;;;;;;;5031317;28;20025;-38
2022/06/02 06:52:55;;;;;;;4.72;2.90;;;;;;;;;;5031234;28;20075;-38
2022/06/02 06:55:30;;;;;;;7.28;4.07;;;;;;;;;;5031371;28;20033;-37
2022/06/02 06:58:01;;;;;;;31.08;4.75;;;;;;;;;;5031182;28;20488;-38
2022/06/02 07:00:42;;;;;;;3.65;3.13;;;;;;;;;;5013704;28;20029;-38
2022/06/02 07:03:14;;;;;;;8.02;3.53;;;;;;;;;;5031153;28;20045;-38
2022/06/02 07:05:51;;;;;;;11.07;4.37;;;;;;;;;;5031222;28;20029;-38
2022/06/02 07:08:35;;;;;;;8.30;3.38;;;;;;;;;;5013759;28;20388;-38
2022/06/02 07:14:19;;;;;;;4.93;3.10;;;;;;;;;;5010673;28;20174;-38
2022/06/02 07:16:58;;;;;;;5.63;3.38;;;;;;;;;;5031436;28;20453;-38
2022/06/02 07:19:39;;;;;;;8.40;4.00;;;;;;;;;;5031014;28;20029;-39
2022/06/02 07:22:20;;;;;;;7.40;3.00;;;;;;;;;;5031396;28;20022;-38
2022/06/02 07:25:04;;;;;;;5.78;3.55;;;;;;;;;;5031025;28;20388;-38
2022/06/02 07:27:29;;;;;;;5.20;2.92;;;;;;;;;;5030950;28;20068;-38
2022/06/02 07:30:13;;;;;;;5.57;3.85;;;;;;;;;;5031194;28;20068;-38
2022/06/02 07:32:55;;;;;;;7.30;3.67;;;;;;;;;;5031178;28;20041;-38
2022/06/02 07:35:29;;;;;;;5.07;3.67;;;;;;;;;;5031002;28;20040;-38
2022/06/02 07:37:55;;;;;;;9.30;3.80;;;;;;;;;;5034051;28;20593;-38
2022/06/02 07:40:40;;;;;;;4.88;3.53;;;;;;;;;;5034794;28;20033;-38
2022/06/02 07:43:26;;;;;;;3.92;3.53;;;;;;;;;;5034845;28;20450;-38
2022/06/02 07:46:11;;;;;;;13.98;3.10;;;;;;;;;;5024035;28;20120;-38
2022/06/02 07:48:48;;;;;;;3.50;3.05;;;;;;;;;;5034644;28;20391;-38
2022/06/02 07:51:23;;;;;;;7.80;3.72;;;;;;;;;;5034674;28;20036;-37
2022/06/02 07:53:51;;;;;;;4.15;3.03;;;;;;;;;;5034495;28;20399;-38
2022/06/02 07:56:29;;;;;;;8.57;2.83;;;;;;;;;;5034614;28;20521;-38
2022/06/02 07:59:10;;;;;;;10.05;3.55;;;;;;;;;;5016685;28;20490;-38
2022/06/02 08:01:48;;;;;;;6.60;3.20;;;;;;;;;;5034406;28;20116;-38
2022/06/02 08:04:22;;;;;;;6.75;3.20;;;;;;;;;;5034078;28;20049;-38
2022/06/02 08:06:56;;;;;;;5.57;3.22;;;;;;;;;;5034393;28;20496;-38
2022/06/02 08:09:36;;;;;;;6.45;3.58;;;;;;;;;;5033992;28;20040;-38
2022/06/02 08:12:08;;;;;;;10.55;3.42;;;;;;;;;;5034185;28;20104;-37
2022/06/02 08:14:40;;;;;;;4.38;2.92;;;;;;;;;;5034539;28;20033;-37
2022/06/02 08:17:06;;;;;;;8.73;4.10;;;;;;;;;;5016719;28;20029;-44
2022/06/02 08:19:50;;;;;;;3.97;3.63;;;;;;;;;;5034009;28;20032;-38
2022/06/02 08:22:24;;;;;;;7.18;2.92;;;;;;;;;;5034020;28;20025;-38
2022/06/02 08:24:52;;;;;;;3.53;2.88;;;;;;;;;;5033957;28;20025;-38
2022/06/02 08:27:37;;;;;;;5.13;3.78;;;;;;;;;;5033954;28;20064;-38
2022/06/02 08:30:03;;;;;;;7.60;3.05;;;;;;;;;;5033882;28;20041;-39
2022/06/02 08:32:47;;;;;;;7.03;3.40;;;;;;;;;;5033762;28;20037;-38
2022/06/02 08:35:19;;;;;;;8.43;4.07;;;;;;;;;;5033831;28;20114;-38
2022/06/02 08:37:51;;;;;;;5.13;2.77;;;;;;;;;;5033505;28;20112;-38
2022/06/02 08:40:23;;;;;;;5.43;3.17;;;;;;;;;;5033730;28;20192;-38
2022/06/02 08:43:01;;;;;;;5.88;2.90;;;;;;;;;;5032286;28;20034;-38
2022/06/02 08:45:38;;;;;;;3.92;3.05;;;;;;;;;;5033665;28;20036;-38
2022/06/02 08:48:12;;;;;;;4.53;3.20;;;;;;;;;;5033292;28;20487;-38
2022/06/02 08:50:38;;;;;;;6.10;3.22;;;;;;;;;;5033580;28;20033;-38
2022/06/02 08:53:07;;;;;;;4.97;3.65;;;;;;;;;;5033473;28;20033;-38
2022/06/02 08:55:42;;;;;;;4.45;3.13;;;;;;;;;;5033515;28;20018;-38
2022/06/02 08:58:11;;;;;;;11.23;3.95;;;;;;;;;;5033303;28;20033;-38
2022/06/02 09:01:09;;;;;;;8.38;4.38;;;;;;;;;;5033361;28;20017;-38
2022/06/02 09:03:41;;;;;;;9.90;4.38;;;;;;;;;;4999807;28;20042;-38
2022/06/02 09:06:13;;;;;;;8.27;5.00;;;;;;;;;;5033179;28;20113;-38
2022/06/02 09:08:48;;;;;;;8.00;4.32;;;;;;;;;;5033126;28;20052;-38
2022/06/02 09:11:14;;;;;;;10.73;5.28;;;;;;;;;;5033101;28;20026;-38
2022/06/02 09:13:59;;;;;;;14.15;7.43;;;;;;;;;;5033069;28;20024;-38
2022/06/02 09:16:31;;;;;;;12.13;7.10;;;;;;;;;;5033069;28;20040;-38
2022/06/02 09:18:58;;;;;;;14.68;8.10;;;;;;;;;;5033035;28;20060;-38
2022/06/02 09:21:25;;;;;;;17.35;7.78;;;;;;;;;;5032916;28;20416;-38
2022/06/02 09:23:55;;;;;;;16.50;7.30;;;;;;;;;;5032952;28;20042;-38
2022/06/02 09:26:39;;;;;;;20.77;8.32;;;;;;;;;;5032912;28;20392;-38
2022/06/02 09:29:19;;;;;;;20.02;9.05;;;;;;;;;;5032727;28;20602;-37
2022/06/02 09:32:12;;;;;;;16.48;8.73;;;;;;;;;;5033068;28;20037;-38
2022/06/02 09:34:38;;;;;;;;;;;;;;;;;;5033400;28;20037;-38
2022/06/02 09:37:22;;;;;;;13.50;7.78;;;;;;;;;;5032663;28;19906;-37
2022/06/02 09:39:48;;;;;;;11.15;6.55;;;;;;;;;;5032472;28;20040;-38
2022/06/02 09:42:17;;;;;;;10.70;7.32;;;;;;;;;;5032488;28;20021;-38
2022/06/02 09:44:58;;;;;;;11.80;8.00;;;;;;;;;;5031116;28;20435;-38
2022/06/02 09:47:47;;;;;;;16.95;8.50;;;;;;;;;;5032326;28;20148;-38
2022/06/02 09:50:36;;;;;;;15.90;9.55;;;;;;;;;;5024793;28;20034;-37
2022/06/02 09:53:11;;;;;;;19.40;10.32;;;;;;;;;;5014678;28;20060;-38
2022/06/02 09:55:39;;;;;;;17.83;7.85;;;;;;;;;;5032292;28;20033;-38
2022/06/02 09:58:27;;;;;;;15.23;7.28;;;;;;;;;;5032448;28;20029;-38
2022/06/02 10:00:56;;;;;;;9.10;7.35;;;;;;;;;;5031609;28;20483;-38
2022/06/02 10:03:35;;;;;;;19.55;9.10;;;;;;;;;;5032079;28;20045;-38
2022/06/02 10:06:09;;;;;;;11.80;6.93;;;;;;;;;;5031975;28;20124;-38
2022/06/02 10:08:44;;;;;;;13.40;6.25;;;;;;;;;;5031936;28;20038;-38
2022/06/02 10:11:16;;;;;;;14.70;8.10;;;;;;;;;;5031941;28;20104;-39
2022/06/02 10:14:07;;;;;;;10.98;6.95;;;;;;;;;;5031917;28;20029;-38
2022/06/02 10:16:51;;;;;;;12.38;6.97;;;;;;;;;;5031993;28;20113;-38
2022/06/02 10:19:32;;;;;;;7.88;5.30;;;;;;;;;;5031740;28;20072;-38
2022/06/02 10:22:04;;;;;;;14.00;5.63;;;;;;;;;;5031636;28;20503;-38
2022/06/02 10:24:36;;;;;;;8.90;7.15;;;;;;;;;;5031676;28;20116;-38
2022/06/02 10:27:14;;;;;;;9.88;6.43;;;;;;;;;;5031952;28;20107;-38
2022/06/02 10:29:58;;;;;;;9.80;5.70;;;;;;;;;;5031881;28;20072;-37
2022/06/02 10:32:52;;;;;;;9.30;6.07;;;;;;;;;;5031590;28;20124;-38
2022/06/02 10:35:17;;;;;;;13.32;7.13;;;;;;;;;;5031729;28;20034;-39
2022/06/02 10:37:46;;;;;;;9.50;7.00;;;;;;;;;;5031455;28;20017;-38
2022/06/02 10:40:13;;;;;;;10.60;5.93;;;;;;;;;;5031512;28;20056;-38
2022/06/02 10:42:44;;;;;;;9.18;5.97;;;;;;;;;;5031478;28;20029;-38
2022/06/02 10:45:31;;;;;;;8.40;4.70;;;;;;;;;;5031805;28;20467;-38
2022/06/02 10:48:22;;;;;;;12.50;5.72;;;;;;;;;;5031240;28;20065;-38
2022/06/02 10:50:56;;;;;;;9.43;5.82;;;;;;;;;;5007892;28;20503;-38
2022/06/02 10:53:25;;;;;;;7.28;6.22;;;;;;;;;;5030820;28;20464;-38
2022/06/02 10:56:10;;;;;;;9.05;5.72;;;;;;;;;;5031225;28;20017;-38
2022/06/02 10:58:48;;;;;;;10.57;6.13;;;;;;;;;;5031655;28;20426;-38
2022/06/02 11:01:13;;;;;;;8.73;5.38;;;;;;;;;;5031484;28;20030;-38
2022/06/02 11:03:41;;;;;;;8.05;4.95;;;;;;;;;;5031203;28;20095;-38
2022/06/02 11:06:16;;;;;;;7.47;5.65;;;;;;;;;;5031246;28;20053;-38
2022/06/02 11:08:52;;;;;;;6.90;5.18;;;;;;;;;;5031037;28;20041;-38
2022/06/02 11:11:24;;;;;;;9.48;4.45;;;;;;;;;;5031745;28;20032;-38
2022/06/02 11:14:08;;;;;;;7.75;5.63;;;;;;;;;;5035235;28;20479;-38
2022/06/02 11:16:52;;;;;;;9.60;6.13;;;;;;;;;;5035263;28;20044;-38
2022/06/02 11:19:36;;;;;;;10.30;5.35;;;;;;;;;;5035445;28;20037;-38
2022/06/02 11:22:14;;;;;;;17.77;5.72;;;;;;;;;;5035021;28;20038;-38
2022/06/02 11:24:46;;;;;;;9.23;5.68;;;;;;;;;;5035211;28;20510;-38
2022/06/02 11:27:19;;;;;;;6.28;5.32;;;;;;;;;;5035153;28;20071;-38
2022/06/02 11:29:52;;;;;;;10.95;6.70;;;;;;;;;;5034842;28;20075;-38
2022/06/02 11:32:26;;;;;;;10.60;5.75;;;;;;;;;;5017278;28;20029;-39
2022/06/02 11:35:05;;;;;;;7.13;5.65;;;;;;;;;;5035001;28;20090;-38
2022/06/02 11:37:50;;;;;;;10.48;6.05;;;;;;;;;;5034910;28;20025;-38
2022/06/02 11:40:27;;;;;;;9.98;6.18;;;;;;;;;;5034871;28;20040;-38
2022/06/02 11:42:56;;;;;;;7.90;5.88;;;;;;;;;;5034636;28;20037;-38
2022/06/02 11:45:30;;;;;;;6.43;5.47;;;;;;;;;;5034862;28;20029;-38
2022/06/02 11:48:08;;;;;;;7.18;5.45;;;;;;;;;;5034592;28;20109;-38
2022/06/02 11:50:53;;;;;;;9.13;5.43;;;;;;;;;;5034639;28;20068;-38
2022/06/02 11:53:20;;;;;;;11.45;5.75;;;;;;;;;;5034739;28;20032;-38
2022/06/02 11:55:58;;;;;;;9.55;5.97;;;;;;;;;;5034545;28;20013;-38
2022/06/02 11:58:44;;;;;;;6.93;6.10;;;;;;;;;;5034645;28;20120;-38
2022/06/02 12:01:21;;;;;;;11.85;6.15;;;;;;;;;;5034409;28;20056;-38
2022/06/02 12:03:50;;;;;;;7.72;5.70;;;;;;;;;;5034028;28;20045;-38
2022/06/02 12:06:35;;;;;;;9.63;6.15;;;;;;;;;;5034344;28;20057;-38
2022/06/02 12:09:09;;;;;;;5.20;4.68;;;;;;;;;;5034136;28;20049;-38
2022/06/02 12:11:43;;;;;;;8.23;5.30;;;;;;;;;;5034161;28;20078;-38
2022/06/02 12:14:09;;;;;;;9.85;7.00;;;;;;;;;;5034136;28;20380;-38
2022/06/02 12:16:41;;;;;;;8.98;4.80;;;;;;;;;;5034244;28;20018;-38
2022/06/02 12:19:25;;;;;;;9.85;6.32;;;;;;;;;;5033878;28;20041;-38
2022/06/02 12:21:51;;;;;;;8.23;4.93;;;;;;;;;;5033682;28;20037;-38
2022/06/02 12:24:17;;;;;;;13.98;5.43;;;;;;;;;;5033791;28;20029;-38
2022/06/02 12:27:19;;;;;;;6.10;5.43;;;;;;;;;;5033913;28;20040;-38
2022/06/02 12:29:56;;;;;;;6.85;5.13;;;;;;;;;;5001865;28;20049;-38
2022/06/02 12:32:39;;;;;;;6.13;4.90;;;;;;;;;;5033620;28;20046;-38
2022/06/02 12:35:17;;;;;;;14.40;6.03;;;;;;;;;;5033741;28;20033;-38
2022/06/02 12:38:11;;;;;;;9.48;5.40;;;;;;;;;;5033693;28;20049;-38
2022/06/02 12:40:50;;;;;;;6.75;5.32;;;;;;;;;;5020496;28;20064;-38
2022/06/02 12:43:18;;;;;;;6.68;5.53;;;;;;;;;;5034031;28;20033;-38
2022/06/02 12:45:44;;;;;;;7.60;5.65;;;;;;;;;;5033567;28;20383;-39
2022/06/02 12:48:18;;;;;;;11.20;6.32;;;;;;;;;;5033691;28;20045;-38
2022/06/02 12:50:54;;;;;;;13.05;6.22;;;;;;;;;;5015818;28;20491;-39
2022/06/02 12:53:38;;;;;;;9.13;4.47;;;;;;;;;;5033506;28;20442;-38
2022/06/02 12:56:24;;;;;;;11.73;4.78;;;;;;;;;;5033579;28;20033;-38
2022/06/02 12:58:50;;;;;;;12.55;5.95;;;;;;;;;;5032118;28;20376;-38
2022/06/02 13:01:26;;;;;;;7.93;5.15;;;;;;;;;;5015610;28;20025;-38
2022/06/02 13:04:11;;;;;;;9.88;5.72;;;;;;;;;;5033026;28;20053;-38
2022/06/02 13:07:02;;;;;;;13.55;6.75;;;;;;;;;;5033294;28;20042;-38
2022/06/02 13:09:32;;;;;;;11.93;5.85;;;;;;;;;;5033194;28;20041;-38
2022/06/02 13:12:16;;;;;;;10.48;5.80;;;;;;;;;;5033081;28;20017;-38
2022/06/02 13:14:53;;;;;;;13.23;5.05;;;;;;;;;;5033160;28;20079;-38
2022/06/02 13:17:19;;;;;;;11.18;6.70;;;;;;;;;;5033082;28;20026;-38
2022/06/02 13:20:00;;;;;;;9.25;5.45;;;;;;;;;;5015292;28;20109;-38
2022/06/02 13:22:35;;;;;;;6.68;4.75;;;;;;;;;;5032892;28;20022;-37
2022/06/02 13:25:17;;;;;;;8.68;5.45;;;;;;;;;;5032956;28;20847;-38
2022/06/02 13:27:54;;;;;;;6.88;5.63;;;;;;;;;;5032731;28;20084;-38
2022/06/02 13:30:22;;;;;;;8.50;5.53;;;;;;;;;;5032819;28;20042;-38
2022/06/02 13:32:57;;;;;;;9.43;5.47;;;;;;;;;;5032987;28;20025;-38
2022/06/02 13:35:44;;;;;;;9.48;5.70;;;;;;;;;;5031938;28;20035;-41
2022/06/02 13:38:14;;;;;;;10.20;5.78;;;;;;;;;;5032930;28;20029;-38
2022/06/02 13:40:49;;;;;;;12.05;5.43;;;;;;;;;;5032499;28;20037;-38
2022/06/02 13:43:33;;;;;;;11.80;6.30;;;;;;;;;;5032540;28;20068;-38
2022/06/02 13:46:34;;;;;;;10.90;6.05;;;;;;;;;;5014968;28;20079;-38
2022/06/02 13:49:13;;;;;;;8.55;5.68;;;;;;;;;;5000550;28;20061;-38
2022/06/02 13:51:42;;;;;;;11.75;5.15;;;;;;;;;;5032375;28;20066;-38
2022/06/02 13:59:52;;;;;;;11.13;5.47;;;;;;;;;;5032278;28;20037;-38
2022/06/02 14:02:39;;;;;;;9.13;4.50;;;;;;;;;;5031965;28;20029;-38
2022/06/02 14:05:07;;;;;;;5.85;5.03;;;;;;;;;;5031962;28;20037;-38
2022/06/02 14:07:33;;;;;;;9.57;5.65;;;;;;;;;;5032271;28;20022;-38
2022/06/02 14:10:18;;;;;;;7.68;6.15;;;;;;;;;;5032001;28;20112;-38
2022/06/02 14:12:46;;;;;;;8.75;4.70;;;;;;;;;;5032266;28;20095;-38
2022/06/02 14:15:15;;;;;;;8.88;6.40;;;;;;;;;;5032204;28;20021;-38
2022/06/02 14:17:43;;;;;;;7.47;5.63;;;;;;;;;;5032001;28;20030;-39
2022/06/02 14:20:12;;;;;;;6.15;5.10;;;;;;;;;;5032142;28;20045;-38
2022/06/02 14:22:41;;;;;;;9.57;6.20;;;;;;;;;;5032189;28;20025;-38
2022/06/02 14:25:14;;;;;;;6.20;4.75;;;;;;;;;;5031680;28;20100;-38
2022/06/02 14:28:02;;;;;;;5.30;4.35;;;;;;;;;;5031674;28;20030;-38
2022/06/02 14:30:34;;;;;;;7.50;5.38;;;;;;;;;;5032006;28;20499;-38
2022/06/02 14:33:00;;;;;;;10.23;5.60;;;;;;;;;;5031569;28;20534;-38
2022/06/02 14:35:48;;;;;;;7.05;5.57;;;;;;;;;;5031906;28;20017;-39
2022/06/02 14:38:16;;;;;;;5.90;5.25;;;;;;;;;;5003179;28;20052;-38
2022/06/02 14:40:42;;;;;;;7.55;4.82;;;;;;;;;;5013767;28;20391;-38
2022/06/02 14:43:07;;;;;;;10.95;5.90;;;;;;;;;;5031553;28;20029;-38
2022/06/02 14:45:45;;;;;;;11.63;5.18;;;;;;;;;;5031391;28;20021;-38
2022/06/02 14:48:12;;;;;;;6.18;5.22;;;;;;;;;;5031634;28;20041;-38
2022/06/02 14:50:53;;;;;;;6.72;4.40;;;;;;;;;;5031737;28;20418;-38
2022/06/02 14:53:37;;;;;;;8.93;4.82;;;;;;;;;;5031454;28;20025;-38
2022/06/02 14:56:09;;;;;;;6.80;5.10;;;;;;;;;;5031212;28;20045;-38
2022/06/02 14:58:45;;;;;;;6.53;5.35;;;;;;;;;;5031328;28;20547;-38
2022/06/02 15:01:14;;;;;;;5.18;4.20;;;;;;;;;;5031618;28;20033;-38
2022/06/02 15:03:59;;;;;;;9.82;4.70;;;;;;;;;;5031195;28;20072;-38
2022/06/02 15:07:01;;;;;;;8.02;4.97;;;;;;;;;;5013653;28;20076;-38
2022/06/02 15:09:39;;;;;;;7.85;5.03;;;;;;;;;;4970085;28;20038;-38
2022/06/02 15:12:37;;;;;;;10.98;4.57;;;;;;;;;;5024330;28;20229;-38
2022/06/02 15:15:18;;;;;;;15.80;5.22;;;;;;;;;;4997818;28;20042;-38
2022/06/02 15:17:47;;;;;;;8.20;4.75;;;;;;;;;;5031409;28;20042;-38
2022/06/02 15:20:12;;;;;;;6.63;4.70;;;;;;;;;;5031473;28;20417;-38
2022/06/02 15:22:38;;;;;;;10.35;5.70;;;;;;;;;;5031249;28;20026;-38
2022/06/02 15:25:15;;;;;;;8.15;4.80;;;;;;;;;;5031027;28;20029;-38
2022/06/02 15:27:53;;;;;;;5.68;4.35;;;;;;;;;;5031079;28;20052;-38
2022/06/02 15:30:40;;;;;;;6.28;5.10;;;;;;;;;;5029777;28;20038;-38
2022/06/02 15:33:24;;;;;;;10.25;5.15;;;;;;;;;;5030959;28;20090;-38
2022/06/02 15:35:54;;;;;;;8.00;4.80;;;;;;;;;;5030936;28;20039;-38
2022/06/02 15:38:38;;;;;;;8.38;4.85;;;;;;;;;;5031169;28;20076;-38
2022/06/02 15:41:13;;;;;;;5.70;4.22;;;;;;;;;;5030867;28;20037;-38
2022/06/02 15:43:53;;;;;;;7.07;4.55;;;;;;;;;;5030940;28;20539;-38
2022/06/02 15:46:19;;;;;;;7.50;4.97;;;;;;;;;;5031135;28;20054;-39